Kimballton, Iowa
Current Conditions -  °F | °C
As of 4:55 AM on Thursday 23 Oct 2014 (Local Time) from KADU Reporting Station
Moderate Rain Moderate Rain  
Wind Chill: 57°   Ceiling: 2400
Heat Index: 57°   Visibility: 3mi
Dew Point: 52°   Wind: 8mph
Humidity: 82%   Direction: 190°S
Pressure: 30.04"   Gusts: NA
Location:  41.63°N, 95.07°W
Report Text: KADU 230955Z AUTO 19007KT 3SM RA SCT007 BKN024 OVC031 14/11 A3004 RMK AO2 P0002
Loading
Personal Weather Stations






























Interactive Weather Map
Tropical Storm Tracking
New forecast layout! Learn more

10-Day Weather Forecast

Advertisements
Track Severe Weather on mobile